createdAt,value
2023-04-01T00:01:51.871Z,6.71
2023-04-01T00:04:52.912Z,6.72
2023-04-01T00:07:52.905Z,6.73
2023-04-01T00:10:52.894Z,6.74
2023-04-01T00:13:53.220Z,6.76
2023-04-01T00:16:55.883Z,6.76
2023-04-01T00:19:58.284Z,6.78
2023-04-01T00:22:58.932Z,6.81
2023-04-01T00:26:00.160Z,6.85
2023-04-01T00:28:59.928Z,6.89
2023-04-01T00:32:01.028Z,6.89
2023-04-01T00:35:05.995Z,6.91
2023-04-01T00:38:06.919Z,6.94
2023-04-01T00:41:10.979Z,6.97
2023-04-01T00:44:30.935Z,7.02
2023-04-01T00:47:30.984Z,7.06
2023-04-01T00:50:30.982Z,7.09
2023-04-01T00:53:31.986Z,7.12
2023-04-01T00:57:09.932Z,7.13
2023-04-01T01:00:11.988Z,7.12
2023-04-01T01:03:21.027Z,7.14
2023-04-01T01:06:29.007Z,7.13
2023-04-01T01:09:30.023Z,7.13
2023-04-01T01:12:30.974Z,7.13
2023-04-01T01:15:44.020Z,7.12
2023-04-01T01:18:53.998Z,7.10
2023-04-01T01:21:56.985Z,7.07
2023-04-01T01:25:16.044Z,7.05
2023-04-01T01:28:35.028Z,7.03
2023-04-01T01:31:39.068Z,7.03
2023-04-01T01:34:40.296Z,7.01
2023-04-01T01:37:40.024Z,6.98
2023-04-01T01:40:40.048Z,6.96
2023-04-01T01:43:40.996Z,6.94
2023-04-01T01:46:42.089Z,6.93
2023-04-01T01:49:42.012Z,6.92
2023-04-01T01:52:43.133Z,6.91
2023-04-01T01:55:46.031Z,6.92
2023-04-01T01:58:53.082Z,6.94
2023-04-01T02:01:56.629Z,6.94
2023-04-01T02:04:57.206Z,6.95
2023-04-01T02:07:58.046Z,6.96
2023-04-01T02:10:59.100Z,6.97
2023-04-01T02:14:08.054Z,6.98
2023-04-01T02:17:11.105Z,6.99
2023-04-01T02:20:14.082Z,7.00
2023-04-01T02:23:15.121Z,7.00
2023-04-01T02:26:15.131Z,7.02
2023-04-01T02:29:15.163Z,7.02
2023-04-01T02:32:15.114Z,7.01
2023-04-01T02:35:15.089Z,7.00
2023-04-01T02:38:15.146Z,6.96
2023-04-01T02:41:16.180Z,6.93
2023-04-01T02:44:16.121Z,6.89
2023-04-01T02:47:16.163Z,6.86
2023-04-01T02:50:16.223Z,6.83
2023-04-01T02:53:18.175Z,6.79
2023-04-01T02:56:22.590Z,6.77
2023-04-01T02:59:26.157Z,6.77
2023-04-01T03:02:26.278Z,6.78
2023-04-01T03:05:26.163Z,6.78
2023-04-01T03:08:27.203Z,6.77
2023-04-01T03:11:28.204Z,6.76
2023-04-01T03:14:30.398Z,6.75
2023-04-01T03:17:30.324Z,6.75
2023-04-01T03:20:32.194Z,6.76
2023-04-01T03:23:33.190Z,6.76
2023-04-01T03:26:34.231Z,6.77
2023-04-01T03:29:34.269Z,6.78
2023-04-01T03:32:34.249Z,6.77
2023-04-01T03:35:34.473Z,6.76
2023-04-01T03:38:34.268Z,6.75
2023-04-01T03:41:34.265Z,6.76
2023-04-01T03:44:44.243Z,6.78
2023-04-01T03:47:44.250Z,6.80
2023-04-01T03:50:44.290Z,6.81
2023-04-01T03:53:46.311Z,6.82
2023-04-01T03:56:47.257Z,6.84
2023-04-01T03:59:47.232Z,6.82
2023-04-01T04:02:47.393Z,6.79
2023-04-01T04:05:51.322Z,6.75
2023-04-01T04:08:51.285Z,6.74
2023-04-01T04:11:51.287Z,6.74
2023-04-01T04:14:52.308Z,6.75
2023-04-01T04:17:46.448Z,6.76
2023-04-01T04:20:46.314Z,6.77
2023-04-01T04:23:46.313Z,6.79
2023-04-01T04:26:48.392Z,6.81
2023-04-01T04:29:49.362Z,6.84
2023-04-01T04:32:54.435Z,6.84
2023-04-01T04:35:54.378Z,6.84
2023-04-01T04:38:55.347Z,6.83
2023-04-01T04:41:56.308Z,6.83
2023-04-01T04:44:52.348Z,6.85
2023-04-01T04:47:52.368Z,6.88
2023-04-01T04:50:55.378Z,6.89
2023-04-01T04:53:55.359Z,6.90
2023-04-01T04:57:06.413Z,6.92
2023-04-01T05:00:11.413Z,6.96
2023-04-01T05:03:17.536Z,7.04
2023-04-01T05:06:17.351Z,7.10
2023-04-01T05:09:19.375Z,7.16
2023-04-01T05:12:20.371Z,7.18
2023-04-01T05:15:23.464Z,7.21
2023-04-01T05:18:24.389Z,7.25
2023-04-01T05:21:24.472Z,7.29
2023-04-01T05:24:26.434Z,7.36
2023-04-01T05:27:28.438Z,7.42
2023-04-01T05:30:30.382Z,7.47
2023-04-01T05:34:01.493Z,7.55
2023-04-01T05:37:01.463Z,7.64
2023-04-01T05:40:03.442Z,7.71
2023-04-01T05:43:03.447Z,7.75
2023-04-01T05:46:03.537Z,7.74
2023-04-01T05:49:28.852Z,7.70
2023-04-01T05:52:30.565Z,7.61
2023-04-01T05:55:30.610Z,7.63
2023-04-01T05:58:33.624Z,7.66
2023-04-01T06:01:34.481Z,7.66
2023-04-01T06:04:38.508Z,7.69
2023-04-01T06:07:38.535Z,7.72
2023-04-01T06:10:40.645Z,7.74
2023-04-01T06:13:44.522Z,7.77
2023-04-01T06:16:46.497Z,7.78
2023-04-01T06:19:46.505Z,7.79
2023-04-01T06:23:09.563Z,7.77
2023-04-01T06:26:28.526Z,7.79
2023-04-01T06:29:46.584Z,7.82
2023-04-01T06:32:54.733Z,7.85
2023-04-01T06:36:05.629Z,7.86
2023-04-01T06:39:11.517Z,7.83
2023-04-01T06:42:11.590Z,7.87
2023-04-01T06:45:19.606Z,7.96
2023-04-01T06:48:44.552Z,8.02
2023-04-01T06:52:25.742Z,8.07
2023-04-01T06:55:58.576Z,8.12
2023-04-01T06:59:25.605Z,8.20
2023-04-01T07:02:55.723Z,8.32
2023-04-01T07:05:57.566Z,8.50
2023-04-01T07:08:59.684Z,8.97
2023-04-01T07:12:38.572Z,9.52
2023-04-01T07:16:22.193Z,10.00
2023-04-01T07:19:40.612Z,10.21
2023-04-01T07:22:47.674Z,10.23
2023-04-01T07:25:53.601Z,10.31
2023-04-01T07:28:58.635Z,10.39
2023-04-01T07:32:19.644Z,10.54
2023-04-01T07:35:26.720Z,10.65
2023-04-01T07:38:29.714Z,10.74
2023-04-01T07:41:40.724Z,10.83
2023-04-01T07:44:45.753Z,10.87
2023-04-01T07:47:52.769Z,10.88
2023-04-01T07:51:00.864Z,10.82
2023-04-01T07:54:27.711Z,10.59
2023-04-01T07:57:30.720Z,10.54
2023-04-01T08:00:36.747Z,10.73
2023-04-01T08:03:47.914Z,11.15
2023-04-01T08:06:50.685Z,11.45
2023-04-01T08:09:50.749Z,11.68
2023-04-01T08:13:18.736Z,12.00
2023-04-01T08:16:42.740Z,12.28
2023-04-01T08:19:56.709Z,12.30
2023-04-01T08:23:05.044Z,12.25
2023-04-01T08:26:22.755Z,12.15
2023-04-01T08:29:25.736Z,11.96
2023-04-01T08:32:34.778Z,11.71
2023-04-01T08:35:38.568Z,11.52
2023-04-01T08:38:47.765Z,11.39
2023-04-01T08:42:05.737Z,11.30
2023-04-01T08:45:34.901Z,11.20
2023-04-01T08:48:41.861Z,11.12
2023-04-01T08:51:46.780Z,11.09
2023-04-01T08:54:57.907Z,11.18
2023-04-01T08:58:26.937Z,11.32
2023-04-01T09:01:50.799Z,11.72
2023-04-01T09:05:11.761Z,12.18
2023-04-01T09:08:30.852Z,12.75
2023-04-01T09:11:48.061Z,13.10
2023-04-01T09:15:03.883Z,13.57
2023-04-01T09:18:22.852Z,14.44
2023-04-01T09:21:38.048Z,15.35
2023-04-01T09:24:56.940Z,16.32
2023-04-01T09:28:24.905Z,17.42
2023-04-01T09:31:45.877Z,18.65
2023-04-01T09:35:10.164Z,18.86
2023-04-01T09:38:34.070Z,18.67
2023-04-01T09:41:33.854Z,18.48
2023-04-01T09:44:59.878Z,18.26
2023-04-01T09:48:18.892Z,18.14
2023-04-01T09:51:38.874Z,17.83
2023-04-01T09:55:00.116Z,17.44
2023-04-01T09:58:09.849Z,17.05
2023-04-01T10:01:51.951Z,16.59
2023-04-01T10:05:08.033Z,16.88
2023-04-01T10:08:04.027Z,17.46
2023-04-01T10:11:26.950Z,17.94
2023-04-01T10:14:43.940Z,18.60
2023-04-01T10:17:49.953Z,19.11
2023-04-01T10:20:58.054Z,19.17
2023-04-01T10:24:20.942Z,19.10
2023-04-01T10:27:25.003Z,19.03
2023-04-01T10:30:37.955Z,18.56
2023-04-01T10:33:50.065Z,17.66
2023-04-01T10:36:52.973Z,17.54
2023-04-01T10:40:22.990Z,17.87
2023-04-01T10:44:13.001Z,18.09
2023-04-01T10:47:23.011Z,17.84
2023-04-01T10:50:29.204Z,17.88
2023-04-01T10:53:48.081Z,18.00
2023-04-01T10:57:50.069Z,17.71
2023-04-01T11:01:35.068Z,17.36
2023-04-01T11:05:07.066Z,16.69
2023-04-01T11:08:33.190Z,16.36
2023-04-01T11:11:52.084Z,16.04
2023-04-01T11:15:12.042Z,16.05
2023-04-01T11:18:21.060Z,16.31
2023-04-01T11:21:40.069Z,16.38
2023-04-01T11:24:48.059Z,16.13
2023-04-01T11:28:17.139Z,16.01
2023-04-01T11:31:24.346Z,15.74
2023-04-01T11:34:30.115Z,15.63
2023-04-01T11:37:31.122Z,15.56
2023-04-01T11:41:02.450Z,15.42
2023-04-01T11:44:23.094Z,15.18
2023-04-01T11:47:59.126Z,15.14
2023-04-01T11:51:19.128Z,14.93
2023-04-01T11:54:29.156Z,14.77
2023-04-01T11:57:45.129Z,14.70
2023-04-01T12:01:01.087Z,14.85
2023-04-01T12:04:28.321Z,15.01
2023-04-01T12:07:34.115Z,15.07
2023-04-01T12:10:40.181Z,14.91
2023-04-01T12:13:49.140Z,14.75
2023-04-01T12:17:02.156Z,14.74
2023-04-01T12:20:08.144Z,14.83
2023-04-01T12:23:30.120Z,14.99
2023-04-01T12:26:30.150Z,15.07
2023-04-01T12:29:31.183Z,15.01
2023-04-01T12:32:40.218Z,15.05
2023-04-01T12:36:08.149Z,15.13
2023-04-01T12:39:39.253Z,15.09
2023-04-01T12:43:00.194Z,15.00
2023-04-01T12:46:04.240Z,14.89
2023-04-01T12:49:11.195Z,14.85
2023-04-01T12:52:15.210Z,14.75
2023-04-01T12:55:21.318Z,14.63
2023-04-01T12:58:28.196Z,14.61
2023-04-01T13:01:28.314Z,14.71
2023-04-01T13:04:49.286Z,14.80
2023-04-01T13:07:56.288Z,14.91
2023-04-01T13:10:56.251Z,14.95
2023-04-01T13:13:57.276Z,14.92
2023-04-01T13:17:17.258Z,14.85
2023-04-01T13:20:18.350Z,14.81
2023-04-01T13:23:18.231Z,14.77
2023-04-01T13:26:28.268Z,14.68
2023-04-01T13:29:28.288Z,14.62
2023-04-01T13:35:53.515Z,14.60
2023-04-01T13:39:13.339Z,14.58
2023-04-01T13:42:33.771Z,14.55
2023-04-01T13:45:37.356Z,14.50
2023-04-01T13:48:44.327Z,14.45
2023-04-01T13:51:46.293Z,14.41
2023-04-01T13:54:50.613Z,14.38
2023-04-01T13:58:06.322Z,14.35
2023-04-01T14:01:20.851Z,14.29
2023-04-01T14:04:34.320Z,14.21
2023-04-01T14:07:53.356Z,14.11
2023-04-01T14:11:16.340Z,14.00
2023-04-01T14:14:17.366Z,13.90
2023-04-01T14:17:28.333Z,13.76
2023-04-01T14:20:32.078Z,13.62
2023-04-01T14:23:37.975Z,13.47
2023-04-01T14:26:41.395Z,13.36
2023-04-01T14:29:44.330Z,13.35
2023-04-01T14:32:47.416Z,13.35
2023-04-01T14:36:18.722Z,13.35
2023-04-01T14:39:32.403Z,13.36
2023-04-01T14:46:16.766Z,13.40
2023-04-01T14:49:29.393Z,13.45
2023-04-01T14:52:37.606Z,13.50
2023-04-01T14:55:49.034Z,13.51
2023-04-01T14:58:57.469Z,13.56
2023-04-01T15:02:15.434Z,13.59
2023-04-01T15:05:27.837Z,13.60
2023-04-01T15:08:35.479Z,13.57
2023-04-01T15:11:53.441Z,13.52
2023-04-01T15:15:23.460Z,13.47
2023-04-01T15:18:23.552Z,13.41
2023-04-01T15:21:32.440Z,13.34
2023-04-01T15:24:35.527Z,13.28
2023-04-01T15:27:43.522Z,13.20
2023-04-01T15:30:53.648Z,13.13
2023-04-01T15:34:00.467Z,13.07
2023-04-01T15:37:21.723Z,13.00
2023-04-01T15:40:24.492Z,12.93
2023-04-01T15:43:29.523Z,12.86
2023-04-01T15:46:29.863Z,12.80
2023-04-01T15:49:31.525Z,12.75
2023-04-01T15:52:36.501Z,12.68
2023-04-01T15:56:00.513Z,12.53
2023-04-01T15:59:06.633Z,12.36
2023-04-01T16:02:26.583Z,12.20
2023-04-01T16:05:35.714Z,12.10
2023-04-01T16:08:40.915Z,12.02
2023-04-01T16:11:57.854Z,11.94
2023-04-01T16:15:01.804Z,11.88
2023-04-01T16:18:08.686Z,11.80
2023-04-01T16:21:11.549Z,11.70
2023-04-01T16:24:13.605Z,11.61
2023-04-01T16:27:30.795Z,11.54
2023-04-01T16:30:49.609Z,11.48
2023-04-01T16:34:08.895Z,11.44
2023-04-01T16:37:19.647Z,11.39
2023-04-01T16:40:29.288Z,11.33
2023-04-01T16:43:37.437Z,11.25
2023-04-01T16:46:48.864Z,11.22
2023-04-01T16:49:54.587Z,11.18
2023-04-01T16:52:58.773Z,11.14
2023-04-01T16:56:08.656Z,11.11
2023-04-01T16:59:16.609Z,11.07
2023-04-01T17:02:21.839Z,11.02
2023-04-01T17:05:22.638Z,10.98
2023-04-01T17:08:35.795Z,10.93
2023-04-01T17:11:38.662Z,10.89
2023-04-01T17:14:42.680Z,10.85
2023-04-01T17:17:42.726Z,10.79
2023-04-01T17:20:56.749Z,10.74
2023-04-01T17:23:59.790Z,10.70
2023-04-01T17:27:07.725Z,10.65
2023-04-01T17:30:27.663Z,10.60
2023-04-01T17:33:31.919Z,10.56
2023-04-01T17:36:46.769Z,10.53
2023-04-01T17:39:54.926Z,10.46
2023-04-01T17:43:03.001Z,10.40
2023-04-01T17:46:12.958Z,10.37
2023-04-01T17:49:15.752Z,10.34
2023-04-01T17:52:38.766Z,10.30
2023-04-01T17:55:42.758Z,10.20
2023-04-01T17:58:43.768Z,10.15
2023-04-01T18:01:46.839Z,10.11
2023-04-01T18:05:05.285Z,10.06
2023-04-01T18:08:31.765Z,10.02
2023-04-01T18:11:35.737Z,9.96
2023-04-01T18:14:48.801Z,9.89
2023-04-01T18:17:49.835Z,9.83
2023-04-01T18:20:50.806Z,9.78
2023-04-01T18:24:01.632Z,9.73
2023-04-01T18:27:05.811Z,9.69
2023-04-01T18:30:08.833Z,9.69
2023-04-01T18:33:16.572Z,9.68
2023-04-01T18:36:30.002Z,9.67
2023-04-01T18:39:34.794Z,9.67
2023-04-01T18:43:01.867Z,9.66
2023-04-01T18:46:14.105Z,9.66
2023-04-01T18:49:21.819Z,9.66
2023-04-01T18:52:24.839Z,9.66
2023-04-01T18:55:27.843Z,9.66
2023-04-01T18:58:27.950Z,9.67
2023-04-01T19:01:27.972Z,9.67
2023-04-01T19:04:47.809Z,9.67
2023-04-01T19:07:50.934Z,9.67
2023-04-01T19:11:14.012Z,9.68
2023-04-01T19:14:32.856Z,9.68
2023-04-01T19:17:44.960Z,9.68
2023-04-01T19:21:05.230Z,9.66
2023-04-01T19:24:05.860Z,9.62
2023-04-01T19:27:44.954Z,9.54
2023-04-01T19:30:52.877Z,9.48
2023-04-01T19:34:13.950Z,9.45
2023-04-01T19:37:34.068Z,9.39
2023-04-01T19:40:43.893Z,9.35
2023-04-01T19:43:52.869Z,9.29
2023-04-01T19:46:53.966Z,9.27
2023-04-01T19:50:00.988Z,9.24
2023-04-01T19:53:01.935Z,9.23
2023-04-01T19:56:02.926Z,9.22
2023-04-01T19:59:24.976Z,9.19
2023-04-01T20:02:26.262Z,9.19
2023-04-01T20:05:35.185Z,9.19
2023-04-01T20:08:40.045Z,9.17
2023-04-01T20:11:59.960Z,9.14
2023-04-01T20:15:06.082Z,9.12
2023-04-01T20:18:07.983Z,9.10
2023-04-01T20:21:13.969Z,9.09
2023-04-01T20:24:17.035Z,9.08
2023-04-01T20:27:25.018Z,9.08
2023-04-01T20:30:44.014Z,9.08
2023-04-01T20:33:49.059Z,9.07
2023-04-01T20:36:55.132Z,9.06
2023-04-01T20:39:56.994Z,9.03
2023-04-01T20:43:13.032Z,9.03
2023-04-01T20:46:22.524Z,9.02
2023-04-01T20:49:26.076Z,9.01
2023-04-01T20:52:29.222Z,9.01
2023-04-01T20:55:45.059Z,9.00
2023-04-01T20:58:51.024Z,8.98
2023-04-01T21:02:01.039Z,8.96
2023-04-01T21:05:20.036Z,8.92
2023-04-01T21:08:27.014Z,8.92
2023-04-01T21:11:30.107Z,8.90
2023-04-01T21:15:08.235Z,8.89
2023-04-01T21:18:26.064Z,8.87
2023-04-01T21:21:52.092Z,8.85
2023-04-01T21:25:04.472Z,8.84
2023-04-01T21:28:11.050Z,8.83
2023-04-01T21:31:17.109Z,8.83
2023-04-01T21:34:41.047Z,8.80
2023-04-01T21:37:47.074Z,8.78
2023-04-01T21:40:58.113Z,8.79
2023-04-01T21:44:05.246Z,8.77
2023-04-01T21:47:09.094Z,8.73
2023-04-01T21:50:33.126Z,8.70
2023-04-01T21:53:34.112Z,8.68
2023-04-01T21:56:53.176Z,8.67
2023-04-01T22:00:00.217Z,8.64
2023-04-01T22:03:02.019Z,8.62
2023-04-01T22:06:05.128Z,8.60
2023-04-01T22:09:11.182Z,8.55
2023-04-01T22:12:11.118Z,8.53
2023-04-01T22:15:15.170Z,8.50
2023-04-01T22:18:37.147Z,8.49
2023-04-01T22:21:38.169Z,8.47
2023-04-01T22:24:40.166Z,8.45
2023-04-01T22:27:59.129Z,8.45
2023-04-01T22:31:05.172Z,8.47
2023-04-01T22:34:05.175Z,8.44
2023-04-01T22:37:17.212Z,8.44
2023-04-01T22:40:37.193Z,8.46
2023-04-01T22:43:39.223Z,8.46
2023-04-01T22:47:02.184Z,8.47
2023-04-01T22:50:05.270Z,8.46
2023-04-01T22:53:24.187Z,8.47
2023-04-01T22:56:26.193Z,8.47
2023-04-01T22:59:30.246Z,8.47
2023-04-01T23:02:35.324Z,8.46
2023-04-01T23:05:35.440Z,8.45
2023-04-01T23:08:55.236Z,8.46
2023-04-01T23:11:59.211Z,8.47
2023-04-01T23:15:03.277Z,8.48
2023-04-01T23:18:05.315Z,8.50
2023-04-01T23:21:10.327Z,8.50
2023-04-01T23:24:15.276Z,8.49
2023-04-01T23:27:20.274Z,8.50
2023-04-01T23:30:36.276Z,8.50
2023-04-01T23:33:37.288Z,8.49
2023-04-01T23:36:39.264Z,8.48
2023-04-01T23:39:46.303Z,8.46
2023-04-01T23:42:47.321Z,8.46
2023-04-01T23:45:47.354Z,8.44
2023-04-01T23:48:52.269Z,8.43
2023-04-01T23:51:52.365Z,8.41
2023-04-01T23:54:56.342Z,8.42
2023-04-01T23:57:56.325Z,8.43
